Time;durP1;ratioP1;P1;durP2;ratioP2;P2;SDS_P1;SDS_P2;PMS_P1;PMS_P2;Temp;Humidity;BMP_temperature;BMP_pressure;BME280_temperature;BME280_humidity;BME280_pressure;Samples;Min_cycle;Max_cycle;Signal;HPM_P1;HPM_P2
2021/08/03 00:02:52;;;;;;;8.85;5.18;;;;;;;;;;6186829;28;20082;-80
2021/08/03 00:05:55;;;;;;;10.00;6.15;;;;;;;;;;6208360;28;20054;-80
2021/08/03 00:08:58;;;;;;;10.25;6.75;;;;;;;;;;6219227;28;20160;-80
2021/08/03 00:12:01;;;;;;;10.50;6.85;;;;;;;;;;6214335;28;20053;-80
2021/08/03 00:15:02;;;;;;;11.87;7.50;;;;;;;;;;6236626;28;20038;-80
2021/08/03 00:18:04;;;;;;;12.32;8.32;;;;;;;;;;6211308;28;20176;-81
2021/08/03 00:21:09;;;;;;;14.45;8.52;;;;;;;;;;6225225;28;20042;-80
2021/08/03 00:24:11;;;;;;;14.15;8.50;;;;;;;;;;6225956;28;20046;-80
2021/08/03 00:27:12;;;;;;;14.52;8.07;;;;;;;;;;6209745;28;20056;-80
2021/08/03 00:30:14;;;;;;;12.15;8.02;;;;;;;;;;6210746;28;20103;-80
2021/08/03 00:33:18;;;;;;;12.75;7.13;;;;;;;;;;6231855;28;20499;-80
2021/08/03 00:36:24;;;;;;;12.00;6.80;;;;;;;;;;6214132;28;20041;-81
2021/08/03 00:39:29;;;;;;;8.50;5.80;;;;;;;;;;6236639;28;20372;-80
2021/08/03 00:42:31;;;;;;;9.25;5.85;;;;;;;;;;6194406;28;20060;-80
2021/08/03 00:45:34;;;;;;;18.40;7.95;;;;;;;;;;6208189;28;20052;-80
2021/08/03 00:48:36;;;;;;;12.13;7.85;;;;;;;;;;6224915;28;20045;-81
2021/08/03 00:51:39;;;;;;;11.27;8.35;;;;;;;;;;6214081;28;20045;-80
2021/08/03 00:54:41;;;;;;;13.50;8.35;;;;;;;;;;6221546;28;20049;-81
2021/08/03 00:57:44;;;;;;;19.30;8.77;;;;;;;;;;6219570;28;20049;-80
2021/08/03 01:00:47;;;;;;;15.00;8.20;;;;;;;;;;6221911;28;20057;-80
2021/08/03 01:03:48;;;;;;;15.57;8.98;;;;;;;;;;6221508;28;20037;-80
2021/08/03 01:07:03;;;;;;;16.30;9.48;;;;;;;;;;6202071;28;20080;-80
2021/08/03 01:10:21;;;;;;;24.58;10.35;;;;;;;;;;6218198;28;20068;-80
2021/08/03 01:13:35;;;;;;;16.02;9.20;;;;;;;;;;6227324;28;20034;-81
2021/08/03 01:16:48;;;;;;;13.40;8.68;;;;;;;;;;6180507;28;20038;-80
2021/08/03 01:19:54;;;;;;;17.00;8.43;;;;;;;;;;6225384;28;20042;-80
2021/08/03 01:23:17;;;;;;;19.70;9.25;;;;;;;;;;6227087;28;20052;-80
2021/08/03 01:26:50;;;;;;;19.38;8.85;;;;;;;;;;6204341;28;20045;-81
2021/08/03 01:29:57;;;;;;;14.52;8.82;;;;;;;;;;6183780;28;20129;-80
2021/08/03 01:33:01;;;;;;;16.42;9.20;;;;;;;;;;6235772;28;20049;-80
2021/08/03 01:36:04;;;;;;;14.82;8.63;;;;;;;;;;6238877;28;20045;-81
2021/08/03 01:39:07;;;;;;;20.42;9.18;;;;;;;;;;6200039;28;20128;-80
2021/08/03 01:42:12;;;;;;;15.15;8.90;;;;;;;;;;6240853;28;20534;-80
2021/08/03 01:45:14;;;;;;;14.48;8.40;;;;;;;;;;6240059;28;20176;-80
2021/08/03 01:48:18;;;;;;;16.05;7.80;;;;;;;;;;6209223;28;20122;-80
2021/08/03 01:51:20;;;;;;;17.02;8.70;;;;;;;;;;6183252;28;20073;-80
2021/08/03 01:54:24;;;;;;;16.92;9.15;;;;;;;;;;6184601;28;20050;-80
2021/08/03 01:57:28;;;;;;;16.70;8.55;;;;;;;;;;6225477;28;20049;-80
2021/08/03 02:00:32;;;;;;;17.67;8.95;;;;;;;;;;6226521;28;20047;-80
2021/08/03 02:03:39;;;;;;;15.35;8.55;;;;;;;;;;6240280;28;20052;-80
2021/08/03 02:06:48;;;;;;;15.30;7.90;;;;;;;;;;6201971;28;20050;-80
2021/08/03 02:09:53;;;;;;;20.67;8.93;;;;;;;;;;6220235;28;20065;-80
2021/08/03 02:12:56;;;;;;;31.48;8.77;;;;;;;;;;6229298;28;20687;-80
2021/08/03 02:16:02;;;;;;;17.83;8.55;;;;;;;;;;6223934;28;20053;-81
2021/08/03 02:19:05;;;;;;;17.00;9.00;;;;;;;;;;6225948;28;20041;-80
2021/08/03 02:22:19;;;;;;;26.42;8.35;;;;;;;;;;6201909;28;20046;-80
2021/08/03 02:25:34;;;;;;;18.48;9.57;;;;;;;;;;6189907;28;20048;-80
2021/08/03 02:28:35;;;;;;;19.27;9.57;;;;;;;;;;6199795;28;20042;-80
2021/08/03 02:31:52;;;;;;;17.93;10.27;;;;;;;;;;6192827;28;20076;-80
2021/08/03 02:35:04;;;;;;;19.77;9.85;;;;;;;;;;6206747;28;20045;-80
2021/08/03 02:38:13;;;;;;;16.97;8.90;;;;;;;;;;6240124;28;20137;-80
2021/08/03 02:41:17;;;;;;;14.85;8.73;;;;;;;;;;6220727;28;20050;-80
2021/08/03 02:44:21;;;;;;;15.48;9.48;;;;;;;;;;6233280;28;20406;-80
2021/08/03 02:47:26;;;;;;;19.00;9.18;;;;;;;;;;6232449;28;20033;-81
2021/08/03 02:50:28;;;;;;;19.73;10.38;;;;;;;;;;6227569;28;20128;-80
2021/08/03 02:53:49;;;;;;;18.73;9.23;;;;;;;;;;6225024;28;20044;-80
2021/08/03 02:56:55;;;;;;;16.90;9.35;;;;;;;;;;6225121;28;20060;-81
2021/08/03 03:00:00;;;;;;;18.08;9.30;;;;;;;;;;6227843;28;20175;-81
2021/08/03 03:03:09;;;;;;;14.63;8.60;;;;;;;;;;6215951;28;20806;-80
2021/08/03 03:06:14;;;;;;;11.52;7.35;;;;;;;;;;6208500;28;20049;-80
2021/08/03 03:09:24;;;;;;;12.88;8.32;;;;;;;;;;6242369;28;20046;-80
2021/08/03 03:12:29;;;;;;;15.18;7.72;;;;;;;;;;6221346;28;20139;-80
2021/08/03 03:15:31;;;;;;;15.35;8.05;;;;;;;;;;6239736;28;20502;-80
2021/08/03 03:18:34;;;;;;;13.50;8.10;;;;;;;;;;6224670;28;20052;-81
2021/08/03 03:21:39;;;;;;;;;;;;;;;;;;6205451;28;20058;-82
2021/08/03 03:24:42;;;;;;;12.55;8.05;;;;;;;;;;6217810;28;19921;-81
2021/08/03 03:27:47;;;;;;;16.02;8.30;;;;;;;;;;6200817;28;20581;-81
2021/08/03 03:30:50;;;;;;;16.08;8.98;;;;;;;;;;6241206;28;20049;-81
2021/08/03 03:33:55;;;;;;;18.45;9.10;;;;;;;;;;6217412;28;20061;-81
2021/08/03 03:36:58;;;;;;;17.10;9.65;;;;;;;;;;6194466;28;20507;-82
2021/08/03 03:40:00;;;;;;;20.30;10.15;;;;;;;;;;6199702;28;20130;-81
2021/08/03 03:43:07;;;;;;;17.52;9.40;;;;;;;;;;6224602;28;20038;-81
2021/08/03 03:46:14;;;;;;;17.23;9.93;;;;;;;;;;6224537;28;20045;-81
2021/08/03 03:49:23;;;;;;;17.80;10.23;;;;;;;;;;6233206;28;20309;-78
2021/08/03 03:52:37;;;;;;;21.25;10.32;;;;;;;;;;6229547;28;20047;-78
2021/08/03 03:55:49;;;;;;;21.50;10.48;;;;;;;;;;6249671;28;20050;-79
2021/08/03 03:58:56;;;;;;;20.23;10.32;;;;;;;;;;6251156;28;20124;-79
2021/08/03 04:02:02;;;;;;;18.77;9.50;;;;;;;;;;6228985;28;20049;-79
2021/08/03 04:05:05;;;;;;;18.98;9.93;;;;;;;;;;6236143;28;20045;-79
2021/08/03 04:08:08;;;;;;;18.98;10.35;;;;;;;;;;6234125;28;20038;-78
2021/08/03 04:11:14;;;;;;;19.42;9.68;;;;;;;;;;6240871;28;20046;-78
2021/08/03 04:14:25;;;;;;;23.60;11.13;;;;;;;;;;6250449;28;20046;-78
2021/08/03 04:17:30;;;;;;;17.38;9.23;;;;;;;;;;6248223;28;20109;-78
2021/08/03 04:20:32;;;;;;;19.63;9.88;;;;;;;;;;6231419;28;20042;-78
2021/08/03 04:23:34;;;;;;;19.23;9.43;;;;;;;;;;6259170;28;20045;-78
2021/08/03 04:26:36;;;;;;;21.45;10.85;;;;;;;;;;6245971;28;20034;-78
2021/08/03 04:29:37;;;;;;;18.88;10.13;;;;;;;;;;6238682;28;20080;-79
2021/08/03 04:32:39;;;;;;;18.50;10.15;;;;;;;;;;6222326;28;20050;-78
2021/08/03 04:35:41;;;;;;;25.42;11.10;;;;;;;;;;6248706;28;20080;-79
2021/08/03 04:38:43;;;;;;;21.02;10.57;;;;;;;;;;6261050;28;20068;-78
2021/08/03 04:41:45;;;;;;;18.50;9.60;;;;;;;;;;6246431;28;20103;-78
2021/08/03 04:44:46;;;;;;;16.63;9.57;;;;;;;;;;6236198;28;20523;-78
2021/08/03 04:47:50;;;;;;;18.73;10.23;;;;;;;;;;6221092;28;20073;-79
2021/08/03 04:50:52;;;;;;;22.42;10.55;;;;;;;;;;6237635;28;20056;-78
2021/08/03 04:53:54;;;;;;;20.65;10.15;;;;;;;;;;6236081;28;20042;-79
2021/08/03 04:56:55;;;;;;;20.45;11.00;;;;;;;;;;6237188;28;20053;-78
2021/08/03 04:59:57;;;;;;;18.15;9.77;;;;;;;;;;6237456;28;20068;-78
2021/08/03 05:02:58;;;;;;;19.52;9.93;;;;;;;;;;6236468;28;20110;-78
2021/08/03 05:06:00;;;;;;;18.85;10.63;;;;;;;;;;6236174;28;20052;-78
2021/08/03 05:09:02;;;;;;;16.55;9.60;;;;;;;;;;6236636;28;20053;-77
2021/08/03 05:12:04;;;;;;;16.65;9.45;;;;;;;;;;6238516;28;20092;-77
2021/08/03 05:15:07;;;;;;;21.05;9.52;;;;;;;;;;6219436;28;20058;-78
2021/08/03 05:18:08;;;;;;;17.83;9.57;;;;;;;;;;6236959;28;20034;-78
2021/08/03 05:21:10;;;;;;;19.70;10.18;;;;;;;;;;6236956;28;20080;-78
2021/08/03 05:24:12;;;;;;;19.52;9.57;;;;;;;;;;6233886;28;20513;-78
2021/08/03 05:27:13;;;;;;;17.65;9.25;;;;;;;;;;6231654;28;20088;-78
2021/08/03 05:30:15;;;;;;;18.48;9.82;;;;;;;;;;6233664;28;20038;-78
2021/08/03 05:33:17;;;;;;;18.48;9.70;;;;;;;;;;6236534;28;20379;-78
2021/08/03 05:36:19;;;;;;;20.85;10.45;;;;;;;;;;6233756;28;20054;-79
2021/08/03 05:39:20;;;;;;;21.17;10.18;;;;;;;;;;6238771;28;20057;-79
2021/08/03 05:42:23;;;;;;;13.68;9.25;;;;;;;;;;6219347;28;20081;-79
2021/08/03 05:45:26;;;;;;;14.43;9.00;;;;;;;;;;6237697;28;20045;-78
2021/08/03 05:48:28;;;;;;;15.48;8.52;;;;;;;;;;6212975;28;20042;-78
2021/08/03 05:51:30;;;;;;;15.23;9.20;;;;;;;;;;6244400;28;20045;-78
2021/08/03 05:54:32;;;;;;;16.85;9.10;;;;;;;;;;6234340;28;20105;-77
2021/08/03 05:57:33;;;;;;;14.93;9.55;;;;;;;;;;6233048;28;20119;-80
2021/08/03 06:00:37;;;;;;;15.57;9.73;;;;;;;;;;6235052;28;20049;-79
2021/08/03 06:03:39;;;;;;;13.50;8.93;;;;;;;;;;6227039;28;20065;-78
2021/08/03 06:06:42;;;;;;;15.70;8.75;;;;;;;;;;6203901;28;20073;-78
2021/08/03 06:09:44;;;;;;;;;;;;;;;;;;6228382;28;20108;-78
2021/08/03 06:12:49;;;;;;;15.18;10.20;;;;;;;;;;6210987;28;19937;-77
2021/08/03 06:15:51;;;;;;;18.73;10.98;;;;;;;;;;6243980;28;20052;-77
2021/08/03 06:19:01;;;;;;;16.35;9.93;;;;;;;;;;6248373;28;20041;-80
2021/08/03 06:22:03;;;;;;;16.45;10.27;;;;;;;;;;6248166;28;20466;-80
2021/08/03 06:25:07;;;;;;;15.65;10.55;;;;;;;;;;6248497;28;20046;-80
2021/08/03 06:28:09;;;;;;;16.65;10.77;;;;;;;;;;6230213;28;20569;-80
2021/08/03 06:31:11;;;;;;;20.65;11.15;;;;;;;;;;6231681;28;20140;-78
2021/08/03 06:34:13;;;;;;;19.60;11.25;;;;;;;;;;6230539;28;20049;-80
2021/08/03 06:37:14;;;;;;;17.75;11.32;;;;;;;;;;6231163;28;20069;-80
2021/08/03 06:40:16;;;;;;;14.48;10.13;;;;;;;;;;6222866;28;20464;-80
2021/08/03 06:43:23;;;;;;;16.27;11.13;;;;;;;;;;6207555;28;20042;-80
2021/08/03 06:46:27;;;;;;;15.75;9.70;;;;;;;;;;6232763;28;20077;-79
2021/08/03 06:49:38;;;;;;;17.27;10.40;;;;;;;;;;6229825;28;20053;-80
2021/08/03 06:52:39;;;;;;;15.68;10.45;;;;;;;;;;6233646;28;20061;-79
2021/08/03 06:55:45;;;;;;;17.27;10.57;;;;;;;;;;6230015;28;20049;-82
2021/08/03 06:59:07;;;;;;;20.65;11.05;;;;;;;;;;6228500;28;20042;-80
2021/08/03 07:02:11;;;;;;;18.10;10.88;;;;;;;;;;6229402;28;20088;-81
2021/08/03 07:05:19;;;;;;;16.33;10.85;;;;;;;;;;6228992;28;20411;-80
2021/08/03 07:08:21;;;;;;;15.80;10.13;;;;;;;;;;6245704;28;20167;-80
2021/08/03 07:11:23;;;;;;;15.73;10.60;;;;;;;;;;6227297;28;20042;-80
2021/08/03 07:14:26;;;;;;;14.17;10.27;;;;;;;;;;6230556;28;20556;-80
2021/08/03 07:17:29;;;;;;;17.30;10.88;;;;;;;;;;6253673;28;20045;-80
2021/08/03 07:20:31;;;;;;;16.77;10.32;;;;;;;;;;6253342;28;20049;-80
2021/08/03 07:23:36;;;;;;;18.58;11.25;;;;;;;;;;6207540;28;20161;-80
2021/08/03 07:26:38;;;;;;;16.42;10.55;;;;;;;;;;6244345;28;20050;-80
2021/08/03 07:29:40;;;;;;;18.30;10.70;;;;;;;;;;6252536;28;20045;-80
2021/08/03 07:32:42;;;;;;;18.48;11.20;;;;;;;;;;6232147;28;20108;-81
2021/08/03 07:35:44;;;;;;;16.60;11.00;;;;;;;;;;6230601;28;20042;-80
2021/08/03 07:38:46;;;;;;;16.25;10.00;;;;;;;;;;6230157;28;20042;-80
2021/08/03 07:41:48;;;;;;;16.23;10.02;;;;;;;;;;6223186;28;20388;-79
2021/08/03 07:44:50;;;;;;;14.95;9.70;;;;;;;;;;6222828;28;20069;-82
2021/08/03 07:47:52;;;;;;;14.27;9.85;;;;;;;;;;6230039;28;20045;-80
2021/08/03 07:50:55;;;;;;;14.85;9.32;;;;;;;;;;6227025;28;20447;-81
2021/08/03 07:53:58;;;;;;;13.60;9.13;;;;;;;;;;6234183;28;20046;-79
2021/08/03 07:57:00;;;;;;;12.48;8.55;;;;;;;;;;6215386;28;20065;-79
2021/08/03 08:00:02;;;;;;;14.10;9.43;;;;;;;;;;6229344;28;20132;-80
2021/08/03 08:03:05;;;;;;;13.52;8.25;;;;;;;;;;6229372;28;20060;-79
2021/08/03 08:06:07;;;;;;;13.65;8.25;;;;;;;;;;6231768;28;20046;-79
2021/08/03 08:09:08;;;;;;;13.75;7.72;;;;;;;;;;6232848;28;20068;-78
2021/08/03 08:12:10;;;;;;;11.40;7.63;;;;;;;;;;6230875;28;20038;-79
2021/08/03 08:15:12;;;;;;;12.77;8.30;;;;;;;;;;6199792;28;20042;-78
2021/08/03 08:18:13;;;;;;;12.95;8.05;;;;;;;;;;6204510;28;20085;-80
2021/08/03 08:21:19;;;;;;;12.70;8.38;;;;;;;;;;6229331;28;20034;-81
2021/08/03 08:24:21;;;;;;;11.93;8.70;;;;;;;;;;6238202;28;20128;-82
2021/08/03 08:27:22;;;;;;;11.70;7.60;;;;;;;;;;6221448;28;20060;-84
2021/08/03 08:30:24;;;;;;;11.25;8.20;;;;;;;;;;6230154;28;20073;-82
2021/08/03 08:33:26;;;;;;;11.65;7.50;;;;;;;;;;6230195;28;20120;-86
2021/08/03 08:36:28;;;;;;;9.82;7.40;;;;;;;;;;6250898;28;20084;-83
2021/08/03 08:39:29;;;;;;;10.98;7.35;;;;;;;;;;6240151;28;20092;-79
2021/08/03 08:42:32;;;;;;;11.55;7.40;;;;;;;;;;6252757;28;20061;-80
2021/08/03 08:45:34;;;;;;;12.23;7.78;;;;;;;;;;6253296;28;20049;-82
2021/08/03 08:48:38;;;;;;;11.15;7.60;;;;;;;;;;6254498;28;20049;-83
2021/08/03 08:51:41;;;;;;;12.63;7.20;;;;;;;;;;6252141;28;20069;-81
2021/08/03 08:54:43;;;;;;;12.07;7.80;;;;;;;;;;6227366;28;20046;-82
2021/08/03 08:57:47;;;;;;;12.30;7.95;;;;;;;;;;6224390;28;20115;-82
2021/08/03 09:00:49;;;;;;;12.02;8.32;;;;;;;;;;6222798;28;20062;-81
2021/08/03 09:03:51;;;;;;;12.67;8.83;;;;;;;;;;6220505;28;20046;-81
2021/08/03 09:07:19;;;;;;;13.20;9.18;;;;;;;;;;6218702;28;20445;-81
2021/08/03 09:10:40;;;;;;;12.48;8.35;;;;;;;;;;6216954;28;20042;-82
2021/08/03 09:13:57;;;;;;;17.58;9.10;;;;;;;;;;6233857;28;20045;-81
2021/08/03 09:16:59;;;;;;;15.93;9.18;;;;;;;;;;6228511;28;20072;-82
2021/08/03 09:20:12;;;;;;;13.65;8.60;;;;;;;;;;6223626;28;20503;-82
2021/08/03 09:23:15;;;;;;;15.05;10.02;;;;;;;;;;6223158;28;20045;-82
2021/08/03 09:26:37;;;;;;;15.37;9.30;;;;;;;;;;6224221;28;20048;-81
2021/08/03 09:29:45;;;;;;;15.52;9.70;;;;;;;;;;6221489;28;20045;-81
2021/08/03 09:32:48;;;;;;;17.10;10.35;;;;;;;;;;6222088;28;20049;-82
2021/08/03 09:35:49;;;;;;;16.63;9.90;;;;;;;;;;6222769;28;20042;-83
2021/08/03 09:38:51;;;;;;;19.58;10.57;;;;;;;;;;6220845;28;20506;-81
2021/08/03 09:41:53;;;;;;;19.73;10.35;;;;;;;;;;6222113;28;20045;-82
2021/08/03 09:45:00;;;;;;;19.75;10.82;;;;;;;;;;6220297;28;20038;-82
2021/08/03 09:48:19;;;;;;;21.05;11.45;;;;;;;;;;6221450;28;20049;-81
2021/08/03 09:51:20;;;;;;;19.58;11.40;;;;;;;;;;6228556;28;20093;-83
2021/08/03 09:54:22;;;;;;;18.98;10.95;;;;;;;;;;6220642;28;20066;-82
2021/08/03 09:57:25;;;;;;;19.73;11.63;;;;;;;;;;6204218;28;20054;-82
2021/08/03 10:00:36;;;;;;;22.35;12.32;;;;;;;;;;6242379;28;20586;-83
2021/08/03 10:03:38;;;;;;;20.85;11.55;;;;;;;;;;6247361;28;20469;-82
2021/08/03 10:06:41;;;;;;;19.35;11.52;;;;;;;;;;6219560;28;20050;-84
2021/08/03 10:09:44;;;;;;;21.70;12.07;;;;;;;;;;6220842;28;20127;-82
2021/08/03 10:12:47;;;;;;;21.08;12.15;;;;;;;;;;6236299;28;20045;-83
2021/08/03 10:15:48;;;;;;;20.60;12.27;;;;;;;;;;6235211;28;20084;-82
2021/08/03 10:18:53;;;;;;;20.10;12.25;;;;;;;;;;6221898;28;20041;-82
2021/08/03 10:22:19;;;;;;;19.38;11.60;;;;;;;;;;6220782;28;20111;-82
2021/08/03 10:25:29;;;;;;;19.15;11.52;;;;;;;;;;6220634;28;20128;-82
2021/08/03 10:28:30;;;;;;;18.08;11.32;;;;;;;;;;6221959;28;20547;-82
2021/08/03 10:31:36;;;;;;;21.77;12.50;;;;;;;;;;6220928;28;20129;-82
2021/08/03 10:34:44;;;;;;;17.92;11.05;;;;;;;;;;6218484;28;20500;-83
2021/08/03 10:37:58;;;;;;;17.15;10.75;;;;;;;;;;6219873;28;20042;-82
2021/08/03 10:41:10;;;;;;;20.13;11.60;;;;;;;;;;6221444;28;20072;-83
2021/08/03 10:44:51;;;;;;;21.23;11.52;;;;;;;;;;6205068;28;20049;-83
2021/08/03 10:47:52;;;;;;;14.02;9.27;;;;;;;;;;6218893;28;20136;-83
2021/08/03 10:50:54;;;;;;;11.40;7.05;;;;;;;;;;6220464;28;20228;-84
2021/08/03 10:54:16;;;;;;;10.25;7.28;;;;;;;;;;6219236;28;20041;-83
2021/08/03 10:57:18;;;;;;;10.68;7.53;;;;;;;;;;6220859;28;20037;-83
2021/08/03 11:00:49;;;;;;;11.40;7.43;;;;;;;;;;6219663;28;20045;-82
2021/08/03 11:03:51;;;;;;;11.27;7.32;;;;;;;;;;6220191;28;20123;-83
2021/08/03 11:06:54;;;;;;;;;;;;;;;;;;6219705;28;20038;-81
2021/08/03 11:09:56;;;;;;;10.13;6.55;;;;;;;;;;6220100;28;20094;-83
2021/08/03 11:12:58;;;;;;;10.88;7.20;;;;;;;;;;6218663;28;20109;-83
2021/08/03 11:15:59;;;;;;;9.80;7.00;;;;;;;;;;6213691;28;20083;-83
2021/08/03 11:19:06;;;;;;;9.40;5.88;;;;;;;;;;6214662;28;20062;-83
2021/08/03 11:22:08;;;;;;;8.35;6.40;;;;;;;;;;6228728;28;20156;-83
2021/08/03 11:25:19;;;;;;;8.63;5.78;;;;;;;;;;6229607;28;20049;-82
2021/08/03 11:28:23;;;;;;;6.95;5.25;;;;;;;;;;6247859;28;20061;-80
2021/08/03 11:31:38;;;;;;;8.05;5.38;;;;;;;;;;6226801;28;20118;-82
2021/08/03 11:34:42;;;;;;;7.60;5.50;;;;;;;;;;6229640;28;20081;-82
2021/08/03 11:37:46;;;;;;;6.45;5.07;;;;;;;;;;6224624;28;20041;-81
2021/08/03 11:40:48;;;;;;;;;;;;;;;;;;6232060;28;20052;-81
2021/08/03 11:43:52;;;;;;;5.78;4.72;;;;;;;;;;6250187;28;19928;-82
2021/08/03 11:47:08;;;;;;;6.20;5.03;;;;;;;;;;6234481;28;20557;-82
2021/08/03 11:50:12;;;;;;;5.88;4.15;;;;;;;;;;6231274;28;20460;-82
2021/08/03 11:53:19;;;;;;;4.13;3.55;;;;;;;;;;6226321;28;20041;-81
2021/08/03 11:56:30;;;;;;;4.75;3.28;;;;;;;;;;6186759;28;20046;-83
2021/08/03 11:59:36;;;;;;;3.70;3.30;;;;;;;;;;6198340;28;20045;-82
2021/08/03 12:02:40;;;;;;;5.13;3.78;;;;;;;;;;6237934;28;20044;-83
2021/08/03 12:05:43;;;;;;;3.67;3.10;;;;;;;;;;6240232;28;20092;-83
2021/08/03 12:08:46;;;;;;;4.18;2.92;;;;;;;;;;6243608;28;20499;-83
2021/08/03 12:12:06;;;;;;;3.28;2.60;;;;;;;;;;6227297;28;20052;-82
2021/08/03 12:15:10;;;;;;;3.53;2.93;;;;;;;;;;6241453;28;20061;-83
2021/08/03 12:18:11;;;;;;;3.35;3.03;;;;;;;;;;6242953;28;20038;-83
2021/08/03 12:21:13;;;;;;;3.13;2.83;;;;;;;;;;6230070;28;20045;-82
2021/08/03 12:24:15;;;;;;;3.83;2.88;;;;;;;;;;6250690;28;20055;-82
2021/08/03 12:27:16;;;;;;;3.55;2.97;;;;;;;;;;6241223;28;20479;-82
2021/08/03 12:30:33;;;;;;;3.72;3.28;;;;;;;;;;6225484;28;20649;-82
2021/08/03 12:33:35;;;;;;;5.43;3.70;;;;;;;;;;6222073;28;20057;-83
2021/08/03 12:36:43;;;;;;;3.38;3.05;;;;;;;;;;6243065;28;20057;-81
2021/08/03 12:39:48;;;;;;;5.43;3.65;;;;;;;;;;6241856;28;20050;-82
2021/08/03 12:42:53;;;;;;;5.13;3.85;;;;;;;;;;6225131;28;20128;-82
2021/08/03 12:45:58;;;;;;;4.50;3.42;;;;;;;;;;6245703;28;20049;-81
2021/08/03 12:48:59;;;;;;;4.32;3.00;;;;;;;;;;6232119;28;20041;-82
2021/08/03 12:52:12;;;;;;;3.38;2.65;;;;;;;;;;6247079;28;20419;-81
2021/08/03 12:55:28;;;;;;;2.85;2.35;;;;;;;;;;6223806;28;20133;-82
2021/08/03 12:58:40;;;;;;;3.40;3.00;;;;;;;;;;6214427;28;20539;-82
2021/08/03 13:01:43;;;;;;;4.15;3.30;;;;;;;;;;6224320;28;20042;-82
2021/08/03 13:04:46;;;;;;;3.92;3.03;;;;;;;;;;6217492;28;20053;-83
2021/08/03 13:07:48;;;;;;;2.60;2.30;;;;;;;;;;6230621;28;20756;-83
2021/08/03 13:10:50;;;;;;;2.73;2.43;;;;;;;;;;6236335;28;20052;-84
2021/08/03 13:13:51;;;;;;;3.92;2.25;;;;;;;;;;6229778;28;20451;-83
2021/08/03 13:16:56;;;;;;;2.80;2.03;;;;;;;;;;6245467;28;20045;-83
2021/08/03 13:19:58;;;;;;;2.75;2.10;;;;;;;;;;6247015;28;20118;-84
2021/08/03 13:23:00;;;;;;;2.10;1.90;;;;;;;;;;6247551;28;20104;-82
2021/08/03 13:26:02;;;;;;;3.58;2.30;;;;;;;;;;6215113;28;20049;-83
2021/08/03 13:29:04;;;;;;;2.67;2.33;;;;;;;;;;6247141;28;20054;-84
2021/08/03 13:32:06;;;;;;;2.65;2.10;;;;;;;;;;6246787;28;20128;-83
2021/08/03 13:35:08;;;;;;;2.47;1.90;;;;;;;;;;6238133;28;20050;-83
2021/08/03 13:38:10;;;;;;;1.58;1.42;;;;;;;;;;6208761;28;20046;-82
2021/08/03 13:41:11;;;;;;;1.92;1.60;;;;;;;;;;6229452;28;20546;-83
2021/08/03 13:44:13;;;;;;;2.42;1.70;;;;;;;;;;6246144;28;20128;-81
2021/08/03 13:47:17;;;;;;;2.58;1.30;;;;;;;;;;6233358;28;20185;-79
2021/08/03 13:50:19;;;;;;;1.42;1.30;;;;;;;;;;6220351;28;20044;-82
2021/08/03 13:53:20;;;;;;;1.58;1.48;;;;;;;;;;6220459;28;20125;-80
2021/08/03 13:56:22;;;;;;;1.30;1.20;;;;;;;;;;6222552;28;20050;-80
2021/08/03 13:59:23;;;;;;;1.23;1.13;;;;;;;;;;6202360;28;20061;-80
2021/08/03 14:02:25;;;;;;;2.00;1.20;;;;;;;;;;6224148;28;20060;-80
2021/08/03 14:05:27;;;;;;;2.90;1.47;;;;;;;;;;6218264;28;20046;-80
2021/08/03 14:08:29;;;;;;;1.35;1.20;;;;;;;;;;6219437;28;20121;-80
2021/08/03 14:11:31;;;;;;;1.88;1.10;;;;;;;;;;6220680;28;20153;-81
2021/08/03 14:14:32;;;;;;;1.33;1.23;;;;;;;;;;6177195;28;20049;-79
2021/08/03 14:17:34;;;;;;;1.40;1.15;;;;;;;;;;6216445;28;20733;-80
2021/08/03 14:20:36;;;;;;;3.03;1.00;;;;;;;;;;6238467;28;20052;-80
2021/08/03 14:23:37;;;;;;;1.20;0.90;;;;;;;;;;6216254;28;20095;-80
2021/08/03 14:26:39;;;;;;;0.80;0.80;;;;;;;;;;6220601;28;20054;-80
2021/08/03 14:29:41;;;;;;;1.30;0.90;;;;;;;;;;6226200;28;20057;-82
2021/08/03 14:32:42;;;;;;;0.88;0.80;;;;;;;;;;6229064;28;20053;-82
2021/08/03 14:35:45;;;;;;;0.70;0.70;;;;;;;;;;6207448;28;20050;-83
2021/08/03 14:38:49;;;;;;;0.93;0.82;;;;;;;;;;6197597;28;20066;-84
2021/08/03 14:41:50;;;;;;;0.70;0.70;;;;;;;;;;6221126;28;20042;-83
2021/08/03 14:44:52;;;;;;;1.10;0.90;;;;;;;;;;6222060;28;20093;-84
2021/08/03 14:47:54;;;;;;;1.65;0.82;;;;;;;;;;6222575;28;20048;-84
2021/08/03 14:50:55;;;;;;;1.20;0.80;;;;;;;;;;6224482;28;20046;-84
2021/08/03 14:53:57;;;;;;;0.80;0.80;;;;;;;;;;6221970;28;20145;-84
2021/08/03 14:56:59;;;;;;;1.13;0.90;;;;;;;;;;6244144;28;20531;-82
2021/08/03 15:00:00;;;;;;;0.73;0.73;;;;;;;;;;6243574;28;20444;-83
2021/08/03 15:03:02;;;;;;;0.80;0.80;;;;;;;;;;6236851;28;20037;-85
2021/08/03 15:06:04;;;;;;;1.83;1.00;;;;;;;;;;6228778;28;20383;-84
2021/08/03 15:09:06;;;;;;;1.10;1.00;;;;;;;;;;6213732;28;20119;-84
2021/08/03 15:12:08;;;;;;;0.98;0.98;;;;;;;;;;6245099;28;20483;-84
2021/08/03 15:15:10;;;;;;;1.23;0.80;;;;;;;;;;6240502;28;20515;-84
2021/08/03 15:18:11;;;;;;;1.17;0.90;;;;;;;;;;6179550;28;20050;-84
2021/08/03 15:21:13;;;;;;;0.90;0.90;;;;;;;;;;6198524;28;20118;-84
2021/08/03 15:24:19;;;;;;;1.00;0.80;;;;;;;;;;6199392;28;20050;-84
2021/08/03 15:27:21;;;;;;;2.13;0.77;;;;;;;;;;6220362;28;20111;-85
2021/08/03 15:30:24;;;;;;;1.08;0.73;;;;;;;;;;6214067;28;20503;-85
2021/08/03 15:33:25;;;;;;;1.73;0.80;;;;;;;;;;6218977;28;20057;-83
2021/08/03 15:36:30;;;;;;;1.10;0.80;;;;;;;;;;6214980;28;20052;-84
2021/08/03 15:39:31;;;;;;;2.22;1.10;;;;;;;;;;6223803;28;20511;-84
2021/08/03 15:42:33;;;;;;;0.90;0.80;;;;;;;;;;6192593;28;20660;-82
2021/08/03 15:45:36;;;;;;;3.90;0.80;;;;;;;;;;6221472;28;20069;-82
2021/08/03 15:48:40;;;;;;;;;;;;;;;;;;6205460;28;20071;-83
2021/08/03 15:51:43;;;;;;;0.70;0.60;;;;;;;;;;6205720;28;19996;-82
2021/08/03 15:54:44;;;;;;;0.95;0.85;;;;;;;;;;6218955;28;20038;-82
2021/08/03 15:57:46;;;;;;;0.95;0.80;;;;;;;;;;6204206;28;20064;-83
2021/08/03 16:00:48;;;;;;;0.90;0.70;;;;;;;;;;6244079;28;20064;-84
2021/08/03 16:03:50;;;;;;;2.60;1.20;;;;;;;;;;6226538;28;20176;-83
2021/08/03 16:06:52;;;;;;;1.30;1.00;;;;;;;;;;6238892;28;20415;-84
2021/08/03 16:09:53;;;;;;;1.35;1.00;;;;;;;;;;6205545;28;20044;-84
2021/08/03 16:12:55;;;;;;;1.10;1.00;;;;;;;;;;6236640;28;20126;-84
2021/08/03 16:15:59;;;;;;;0.88;0.80;;;;;;;;;;6215932;28;20106;-84
2021/08/03 16:19:04;;;;;;;1.45;1.00;;;;;;;;;;6231664;28;20049;-84
2021/08/03 16:22:06;;;;;;;2.03;0.85;;;;;;;;;;6220889;28;20038;-83
2021/08/03 16:25:09;;;;;;;1.05;0.80;;;;;;;;;;6240326;28;20038;-84
2021/08/03 16:28:10;;;;;;;;;;;;;;;;;;6218457;28;20469;-83
2021/08/03 16:31:13;;;;;;;0.77;0.70;;;;;;;;;;6219976;28;20651;-84
2021/08/03 16:34:16;;;;;;;1.27;0.90;;;;;;;;;;6223795;28;20052;-83
2021/08/03 16:37:21;;;;;;;1.13;0.98;;;;;;;;;;6221938;28;21768;-83
2021/08/03 16:40:25;;;;;;;1.00;0.90;;;;;;;;;;6204243;28;20045;-84
2021/08/03 16:43:29;;;;;;;0.60;0.60;;;;;;;;;;6202989;28;20065;-83
2021/08/03 16:46:31;;;;;;;1.42;0.75;;;;;;;;;;6219618;28;20172;-84
2021/08/03 16:49:35;;;;;;;0.73;0.73;;;;;;;;;;6227448;28;20669;-84
2021/08/03 16:52:42;;;;;;;1.73;0.82;;;;;;;;;;6226735;28;20041;-83
2021/08/03 16:55:45;;;;;;;;;;;;;;;;;;6205204;28;20041;-83
2021/08/03 16:58:47;;;;;;;0.85;0.80;;;;;;;;;;6229334;28;20070;-83
2021/08/03 17:02:31;;;;;;;1.00;0.90;;;;;;;;;;6228969;28;20495;-83
2021/08/03 17:05:52;;;;;;;2.28;1.30;;;;;;;;;;6247740;28;20045;-83
2021/08/03 17:09:02;;;;;;;2.15;1.60;;;;;;;;;;6247613;28;20080;-84
2021/08/03 17:12:08;;;;;;;1.13;1.02;;;;;;;;;;6230916;28;20104;-83
2021/08/03 17:15:13;;;;;;;3.13;1.05;;;;;;;;;;6246099;28;20038;-84
2021/08/03 17:18:19;;;;;;;1.40;1.20;;;;;;;;;;6230380;28;20057;-84
2021/08/03 17:21:30;;;;;;;2.58;1.10;;;;;;;;;;6209125;28;20046;-84
2021/08/03 17:24:37;;;;;;;2.00;1.20;;;;;;;;;;6205393;28;20125;-82
2021/08/03 17:27:43;;;;;;;1.55;1.10;;;;;;;;;;6225160;28;20115;-83
2021/08/03 17:30:44;;;;;;;1.58;1.27;;;;;;;;;;6234264;28;20042;-83
2021/08/03 17:33:47;;;;;;;1.08;0.98;;;;;;;;;;6244409;28;20132;-82
2021/08/03 17:36:50;;;;;;;2.25;1.40;;;;;;;;;;6229032;28;20119;-82
2021/08/03 17:39:52;;;;;;;4.60;2.03;;;;;;;;;;6225156;28;20053;-83
2021/08/03 17:42:54;;;;;;;2.03;1.67;;;;;;;;;;6244726;28;20462;-82
2021/08/03 17:45:59;;;;;;;1.98;1.50;;;;;;;;;;6220706;28;20103;-83
2021/08/03 17:49:09;;;;;;;2.75;1.58;;;;;;;;;;6246210;28;20037;-83
2021/08/03 17:52:17;;;;;;;2.58;1.70;;;;;;;;;;6192414;28;20092;-82
2021/08/03 17:55:20;;;;;;;2.53;1.88;;;;;;;;;;6206145;28;20563;-83
2021/08/03 17:58:24;;;;;;;2.38;1.77;;;;;;;;;;6223337;28;20122;-83
2021/08/03 18:01:27;;;;;;;3.10;1.83;;;;;;;;;;6223535;28;20037;-84
2021/08/03 18:04:29;;;;;;;2.72;1.65;;;;;;;;;;6213684;28;20049;-83
2021/08/03 18:07:31;;;;;;;1.85;1.65;;;;;;;;;;6219027;28;20100;-85
2021/08/03 18:10:37;;;;;;;2.70;1.75;;;;;;;;;;6198774;28;20053;-84
2021/08/03 18:13:43;;;;;;;3.85;1.75;;;;;;;;;;6232176;28;20652;-84
2021/08/03 18:16:46;;;;;;;2.63;1.90;;;;;;;;;;6232063;28;20045;-84